createdAt,value
2018-11-14T00:00:07.923Z,6.92
2018-11-14T00:01:08.146Z,6.81
2018-11-14T00:02:08.367Z,6.88
2018-11-14T00:03:08.586Z,6.81
2018-11-14T00:04:08.812Z,6.67
2018-11-14T00:05:09.034Z,6.60
2018-11-14T00:06:09.259Z,6.54
2018-11-14T00:07:09.491Z,6.44
2018-11-14T00:08:09.713Z,6.36
2018-11-14T00:09:09.937Z,6.20
2018-11-14T00:10:10.173Z,6.33
2018-11-14T00:11:10.382Z,6.38
2018-11-14T00:12:10.607Z,6.41
2018-11-14T00:13:10.830Z,6.49
2018-11-14T00:14:11.052Z,6.39
2018-11-14T00:15:11.281Z,6.45
2018-11-14T00:16:11.506Z,6.31
2018-11-14T00:17:11.733Z,6.31
2018-11-14T00:18:11.950Z,6.14
2018-11-14T00:19:12.176Z,6.14
2018-11-14T00:20:12.440Z,6.31
2018-11-14T00:21:12.623Z,6.30
2018-11-14T00:22:12.853Z,6.20
2018-11-14T00:23:13.072Z,6.26
2018-11-14T00:24:13.298Z,6.24
2018-11-14T00:25:13.520Z,6.26
2018-11-14T00:26:13.749Z,6.08
2018-11-14T00:27:13.973Z,6.17
2018-11-14T00:28:14.197Z,6.17
2018-11-14T00:29:14.446Z,6.01
2018-11-14T00:30:14.637Z,6.05
2018-11-14T00:31:14.863Z,6.01
2018-11-14T00:32:15.089Z,6.07
2018-11-14T00:33:15.567Z,5.91
2018-11-14T00:34:15.537Z,5.91
2018-11-14T00:35:15.762Z,6.04
2018-11-14T00:36:15.987Z,6.09
2018-11-14T00:37:16.210Z,5.98
2018-11-14T00:38:16.437Z,6.04
2018-11-14T00:39:16.659Z,5.97
2018-11-14T00:40:16.887Z,5.94
2018-11-14T00:41:17.110Z,5.94
2018-11-14T00:42:17.331Z,5.72
2018-11-14T00:43:17.561Z,5.86
2018-11-14T00:44:17.773Z,5.90
2018-11-14T00:45:17.997Z,5.98
2018-11-14T00:46:18.223Z,5.89
2018-11-14T00:47:18.446Z,5.97
2018-11-14T00:48:18.673Z,5.94
2018-11-14T00:49:18.897Z,5.97
2018-11-14T00:50:19.122Z,5.90
2018-11-14T00:51:19.345Z,5.91
2018-11-14T00:52:19.572Z,6.01
2018-11-14T00:53:19.796Z,5.93
2018-11-14T00:54:20.018Z,5.97
2018-11-14T00:55:20.241Z,5.91
2018-11-14T00:56:20.463Z,5.89
2018-11-14T00:57:20.682Z,5.91
2018-11-14T00:58:20.906Z,5.86
2018-11-14T00:59:21.130Z,5.89
2018-11-14T01:00:21.355Z,5.90
2018-11-14T01:01:21.631Z,5.87
2018-11-14T01:02:21.799Z,5.99
2018-11-14T01:03:22.022Z,6.09
2018-11-14T01:04:22.248Z,6.12
2018-11-14T01:05:22.467Z,6.11
2018-11-14T01:06:22.693Z,6.07
2018-11-14T01:07:22.916Z,6.09
2018-11-14T01:08:23.141Z,6.12
2018-11-14T01:09:23.368Z,6.12
2018-11-14T01:10:23.587Z,6.17
2018-11-14T01:11:23.810Z,5.99
2018-11-14T01:12:24.031Z,5.90
2018-11-14T01:13:24.254Z,5.94
2018-11-14T01:14:24.529Z,5.71
2018-11-14T01:15:24.696Z,5.71
2018-11-14T01:16:24.923Z,5.71
2018-11-14T01:17:25.226Z,5.87
2018-11-14T01:18:25.371Z,5.79
2018-11-14T01:19:25.592Z,5.75
2018-11-14T01:20:25.806Z,5.84
2018-11-14T01:21:26.044Z,5.76
2018-11-14T01:22:26.265Z,5.71
2018-11-14T01:23:26.492Z,5.73
2018-11-14T01:24:26.715Z,5.87
2018-11-14T01:25:26.940Z,5.83
2018-11-14T01:26:27.172Z,5.71
2018-11-14T01:27:27.386Z,5.83
2018-11-14T01:28:27.608Z,5.82
2018-11-14T01:29:27.838Z,5.93
2018-11-14T01:30:28.055Z,5.91
2018-11-14T01:31:28.273Z,5.97
2018-11-14T01:32:28.499Z,6.02
2018-11-14T01:33:28.724Z,5.94
2018-11-14T01:34:28.946Z,5.93
2018-11-14T01:35:29.172Z,5.87
2018-11-14T01:36:29.393Z,5.80
2018-11-14T01:37:29.611Z,5.68
2018-11-14T01:38:29.832Z,5.83
2018-11-14T01:39:30.058Z,5.82
2018-11-14T01:40:30.283Z,5.84
2018-11-14T01:41:30.508Z,5.79
2018-11-14T01:42:30.731Z,5.68
2018-11-14T01:43:30.955Z,5.79
2018-11-14T01:44:31.180Z,5.75
2018-11-14T01:45:31.400Z,5.69
2018-11-14T01:46:31.627Z,5.51
2018-11-14T01:47:31.848Z,5.54
2018-11-14T01:48:32.068Z,5.50
2018-11-14T01:49:32.295Z,5.43
2018-11-14T01:50:32.516Z,5.36
2018-11-14T01:51:32.739Z,5.54
2018-11-14T01:52:32.962Z,5.51
2018-11-14T01:53:33.184Z,5.54
2018-11-14T01:54:33.409Z,5.54
2018-11-14T01:55:33.631Z,5.56
2018-11-14T01:56:33.847Z,5.59
2018-11-14T01:57:34.073Z,5.50
2018-11-14T01:58:34.296Z,5.56
2018-11-14T01:59:34.518Z,5.65
2018-11-14T02:00:34.743Z,5.66
2018-11-14T02:01:34.961Z,5.69
2018-11-14T02:02:35.184Z,5.66
2018-11-14T02:03:35.408Z,5.69
2018-11-14T02:04:35.639Z,5.68
2018-11-14T02:05:35.853Z,5.69
2018-11-14T02:06:36.077Z,5.65
2018-11-14T02:07:36.300Z,5.56
2018-11-14T02:08:36.525Z,5.59
2018-11-14T02:09:36.751Z,5.65
2018-11-14T02:10:36.973Z,5.65
2018-11-14T02:11:37.199Z,5.69
2018-11-14T02:12:37.413Z,5.65
2018-11-14T02:13:37.629Z,5.76
2018-11-14T02:14:37.857Z,5.66
2018-11-14T02:15:38.082Z,5.83
2018-11-14T02:16:38.304Z,5.79
2018-11-14T02:17:38.528Z,5.72
2018-11-14T02:18:38.752Z,5.72
2018-11-14T02:19:38.973Z,5.76
2018-11-14T02:20:39.197Z,5.75
2018-11-14T02:21:39.423Z,5.75
2018-11-14T02:22:39.647Z,5.69
2018-11-14T02:23:39.863Z,5.73
2018-11-14T02:24:40.087Z,5.73
2018-11-14T02:25:40.316Z,5.62
2018-11-14T02:26:40.540Z,5.66
2018-11-14T02:27:40.765Z,5.66
2018-11-14T02:28:40.986Z,5.64
2018-11-14T02:29:41.209Z,5.68
2018-11-14T02:30:41.436Z,5.57
2018-11-14T02:31:41.659Z,5.61
2018-11-14T02:32:41.883Z,5.56
2018-11-14T02:33:42.098Z,5.33
2018-11-14T02:34:42.319Z,5.35
2018-11-14T02:35:42.545Z,5.32
2018-11-14T02:36:42.771Z,5.26
2018-11-14T02:37:42.992Z,5.25
2018-11-14T02:38:43.216Z,5.23
2018-11-14T02:39:43.442Z,5.36
2018-11-14T02:40:43.671Z,5.36
2018-11-14T02:41:43.886Z,5.39
2018-11-14T02:42:44.120Z,5.33
2018-11-14T02:43:44.337Z,5.39
2018-11-14T02:44:44.571Z,5.32
2018-11-14T02:45:44.785Z,5.44
2018-11-14T02:46:45.009Z,5.53
2018-11-14T02:47:45.233Z,5.44
2018-11-14T02:48:45.458Z,5.46
2018-11-14T02:49:45.681Z,5.56
2018-11-14T02:50:45.901Z,5.50
2018-11-14T02:51:46.120Z,5.66
2018-11-14T02:52:46.348Z,5.69
2018-11-14T02:53:46.566Z,5.72
2018-11-14T02:54:46.792Z,5.69
2018-11-14T02:55:47.014Z,5.68
2018-11-14T02:56:47.236Z,5.54
2018-11-14T02:57:47.464Z,5.46
2018-11-14T02:58:47.688Z,5.35
2018-11-14T02:59:47.910Z,5.36
2018-11-14T03:00:48.134Z,5.48
2018-11-14T03:01:48.357Z,5.35
2018-11-14T03:02:48.588Z,5.20
2018-11-14T03:03:48.805Z,5.15
2018-11-14T03:04:49.033Z,5.33
2018-11-14T03:05:49.258Z,5.38
2018-11-14T03:06:49.476Z,5.46
2018-11-14T03:07:49.699Z,5.35
2018-11-14T03:08:49.923Z,5.17
2018-11-14T03:09:50.145Z,5.08
2018-11-14T03:10:50.366Z,5.20
2018-11-14T03:11:50.589Z,5.32
2018-11-14T03:12:50.818Z,5.32
2018-11-14T03:13:51.040Z,5.33
2018-11-14T03:14:51.265Z,5.36
2018-11-14T03:15:51.491Z,5.26
2018-11-14T03:16:51.724Z,5.18
2018-11-14T03:17:51.932Z,5.28
2018-11-14T03:18:52.160Z,5.17
2018-11-14T03:19:52.384Z,5.23
2018-11-14T03:20:52.609Z,5.07
2018-11-14T03:21:52.822Z,4.97
2018-11-14T03:22:53.067Z,4.93
2018-11-14T03:23:53.296Z,5.00
2018-11-14T03:24:53.525Z,5.10
2018-11-14T03:25:53.748Z,5.15
2018-11-14T03:26:53.974Z,5.32
2018-11-14T03:27:54.200Z,5.46
2018-11-14T03:28:54.418Z,5.54
2018-11-14T03:29:54.659Z,5.47
2018-11-14T03:30:54.874Z,5.44
2018-11-14T03:31:55.115Z,5.46
2018-11-14T03:32:55.326Z,5.35
2018-11-14T03:33:55.549Z,5.41
2018-11-14T03:34:55.780Z,5.46
2018-11-14T03:35:56.002Z,5.61
2018-11-14T03:36:56.225Z,5.62
2018-11-14T03:37:56.441Z,5.57
2018-11-14T03:38:56.665Z,5.59
2018-11-14T03:39:56.883Z,5.59
2018-11-14T03:40:57.107Z,5.73
2018-11-14T03:41:57.330Z,5.75
2018-11-14T03:42:57.555Z,5.90
2018-11-14T03:43:57.776Z,5.79
2018-11-14T03:44:58.002Z,5.73
2018-11-14T03:45:58.223Z,5.84
2018-11-14T03:46:58.449Z,5.62
2018-11-14T03:47:58.674Z,5.64
2018-11-14T03:48:58.896Z,5.43
2018-11-14T03:49:59.119Z,5.47
2018-11-14T03:50:59.381Z,5.35
2018-11-14T03:51:59.602Z,5.33
2018-11-14T03:52:59.833Z,5.35
2018-11-14T03:54:00.046Z,5.21
2018-11-14T03:55:00.266Z,5.18
2018-11-14T03:56:00.494Z,5.18
2018-11-14T03:57:00.720Z,5.33
2018-11-14T03:58:00.945Z,5.29
2018-11-14T03:59:01.159Z,5.35
2018-11-14T04:00:01.399Z,5.43
2018-11-14T04:01:01.611Z,5.46
2018-11-14T04:02:01.836Z,5.56
2018-11-14T04:03:02.056Z,5.62
2018-11-14T04:04:02.281Z,5.80
2018-11-14T04:05:02.510Z,5.87
2018-11-14T04:06:02.733Z,5.90
2018-11-14T04:07:02.956Z,5.97
2018-11-14T04:08:03.181Z,5.93
2018-11-14T04:09:03.425Z,5.80
2018-11-14T04:10:03.638Z,5.66
2018-11-14T04:11:03.874Z,5.51
2018-11-14T04:12:04.083Z,5.47
2018-11-14T04:13:04.306Z,5.48
2018-11-14T04:14:04.533Z,5.44
2018-11-14T04:15:04.775Z,5.57
2018-11-14T04:16:05.003Z,5.65
2018-11-14T04:17:05.234Z,5.86
2018-11-14T04:18:05.450Z,5.87
2018-11-14T04:19:05.668Z,6.02
2018-11-14T04:20:05.891Z,6.11
2018-11-14T04:21:06.111Z,6.19
2018-11-14T04:22:06.332Z,6.16
2018-11-14T04:23:06.559Z,6.16
2018-11-14T04:24:06.779Z,6.16
2018-11-14T04:25:07.001Z,6.09
2018-11-14T04:26:07.222Z,6.19
2018-11-14T04:27:07.446Z,6.33
2018-11-14T04:28:07.667Z,6.31
2018-11-14T04:29:07.920Z,6.33
2018-11-14T04:30:08.177Z,6.36
2018-11-14T04:31:08.403Z,6.19
2018-11-14T04:32:08.624Z,6.35
2018-11-14T04:33:08.843Z,6.20
2018-11-14T04:34:09.068Z,6.04
2018-11-14T04:35:09.303Z,6.11
2018-11-14T04:36:09.518Z,5.98
2018-11-14T04:37:09.751Z,6.09
2018-11-14T04:38:09.975Z,6.20
2018-11-14T04:39:10.197Z,6.12
2018-11-14T04:40:10.424Z,6.17
2018-11-14T04:41:10.648Z,6.17
2018-11-14T04:42:10.875Z,6.05
2018-11-14T04:43:11.099Z,5.90
2018-11-14T04:44:11.331Z,5.84
2018-11-14T04:45:11.550Z,5.71
2018-11-14T04:46:11.775Z,5.75
2018-11-14T04:47:12.021Z,5.82
2018-11-14T04:48:12.357Z,5.72
2018-11-14T04:49:12.466Z,5.65
2018-11-14T04:50:12.692Z,5.65
2018-11-14T04:51:12.934Z,5.71
2018-11-14T04:52:13.159Z,5.71
2018-11-14T04:53:13.375Z,5.68
2018-11-14T04:54:13.598Z,5.59
2018-11-14T04:55:13.822Z,5.61
2018-11-14T04:56:14.046Z,5.64
2018-11-14T04:57:14.275Z,5.65
2018-11-14T04:58:14.495Z,5.50
2018-11-14T04:59:14.720Z,5.51
2018-11-14T05:00:14.946Z,5.56
2018-11-14T05:01:15.177Z,5.54
2018-11-14T05:02:15.400Z,5.46
2018-11-14T05:03:15.617Z,5.46
2018-11-14T05:04:15.843Z,5.51
2018-11-14T05:05:16.067Z,5.57
2018-11-14T05:06:16.296Z,5.64
2018-11-14T05:07:16.519Z,5.56
2018-11-14T05:08:16.738Z,5.64
2018-11-14T05:09:16.967Z,5.48
2018-11-14T05:10:17.190Z,5.66
2018-11-14T05:11:17.413Z,5.61
2018-11-14T05:12:17.643Z,5.56
2018-11-14T05:13:17.863Z,5.47
2018-11-14T05:14:18.090Z,5.48
2018-11-14T05:15:18.316Z,5.51
2018-11-14T05:16:18.541Z,5.54
2018-11-14T05:17:18.765Z,5.53
2018-11-14T05:18:18.988Z,5.56
2018-11-14T05:19:19.213Z,5.51
2018-11-14T05:20:19.435Z,5.50
2018-11-14T05:21:19.659Z,5.51
2018-11-14T05:22:19.882Z,5.76
2018-11-14T05:23:20.109Z,5.83
2018-11-14T05:24:20.341Z,5.97
2018-11-14T05:25:20.559Z,6.09
2018-11-14T05:26:20.784Z,6.16
2018-11-14T05:27:21.004Z,6.19
2018-11-14T05:28:21.229Z,6.30
2018-11-14T05:29:21.452Z,6.33
2018-11-14T05:30:21.680Z,6.35
2018-11-14T05:31:21.902Z,6.30
2018-11-14T05:32:22.128Z,6.30
2018-11-14T05:33:22.349Z,6.38
2018-11-14T05:34:22.575Z,6.38
2018-11-14T05:35:22.802Z,6.44
2018-11-14T05:36:23.020Z,6.44
2018-11-14T05:37:23.249Z,6.46
2018-11-14T05:38:23.471Z,6.44
2018-11-14T05:39:23.693Z,6.38
2018-11-14T05:40:23.913Z,6.39
2018-11-14T05:41:24.137Z,6.30
2018-11-14T05:42:24.362Z,6.33
2018-11-14T05:43:24.582Z,6.48
2018-11-14T05:44:24.807Z,6.31
2018-11-14T05:45:25.048Z,6.16
2018-11-14T05:46:25.255Z,6.14
2018-11-14T05:47:25.487Z,6.17
2018-11-14T05:48:25.705Z,6.30
2018-11-14T05:49:25.933Z,6.38
2018-11-14T05:50:26.156Z,6.39
2018-11-14T05:51:26.382Z,6.27
2018-11-14T05:52:26.597Z,6.45
2018-11-14T05:53:26.821Z,6.60
2018-11-14T05:54:27.056Z,6.48
2018-11-14T05:55:27.271Z,6.41
2018-11-14T05:56:27.499Z,6.38
2018-11-14T05:57:27.724Z,6.22
2018-11-14T05:58:27.951Z,6.07
2018-11-14T05:59:28.177Z,6.05
2018-11-14T06:00:28.396Z,6.28
2018-11-14T06:01:28.623Z,6.30
2018-11-14T06:02:28.847Z,6.35
2018-11-14T06:03:29.071Z,6.16
2018-11-14T06:04:29.294Z,6.33
2018-11-14T06:05:29.519Z,6.28
2018-11-14T06:06:29.734Z,6.09
2018-11-14T06:07:29.983Z,6.31
2018-11-14T06:08:30.192Z,6.16
2018-11-14T06:09:30.418Z,6.14
2018-11-14T06:10:30.641Z,6.24
2018-11-14T06:11:30.861Z,6.17
2018-11-14T06:12:31.085Z,6.05
2018-11-14T06:13:31.309Z,6.02
2018-11-14T06:14:31.534Z,6.01
2018-11-14T06:15:31.755Z,5.87
2018-11-14T06:16:31.979Z,5.98
2018-11-14T06:17:32.206Z,6.04
2018-11-14T06:18:32.430Z,5.94
2018-11-14T06:19:32.654Z,5.93
2018-11-14T06:20:32.878Z,6.08
2018-11-14T06:21:33.104Z,6.05
2018-11-14T06:22:33.326Z,6.07
2018-11-14T06:23:33.556Z,6.01
2018-11-14T06:24:33.773Z,6.09
2018-11-14T06:25:33.993Z,5.98
2018-11-14T06:26:34.220Z,5.98
2018-11-14T06:27:34.443Z,6.01
2018-11-14T06:28:34.672Z,6.02
2018-11-14T06:29:34.916Z,6.02
2018-11-14T06:30:35.117Z,6.14
2018-11-14T06:31:35.344Z,6.19
2018-11-14T06:32:35.565Z,6.14
2018-11-14T06:33:35.788Z,6.24
2018-11-14T06:34:36.006Z,6.28
2018-11-14T06:35:36.240Z,6.39
2018-11-14T06:36:36.458Z,6.51
2018-11-14T06:37:36.680Z,6.62
2018-11-14T06:38:36.905Z,6.78
2018-11-14T06:39:37.130Z,6.78
2018-11-14T06:40:37.354Z,6.88
2018-11-14T06:41:37.602Z,6.85
2018-11-14T06:42:37.801Z,6.89
2018-11-14T06:43:38.025Z,6.96
2018-11-14T06:44:38.249Z,7.00
2018-11-14T06:45:38.474Z,6.95
2018-11-14T06:46:38.703Z,7.00
2018-11-14T06:47:38.924Z,7.00
2018-11-14T06:48:39.149Z,6.97
2018-11-14T06:49:39.378Z,6.93
2018-11-14T06:50:39.598Z,6.93
2018-11-14T06:51:39.832Z,6.88
2018-11-14T06:52:40.052Z,6.89
2018-11-14T06:53:40.272Z,6.97
2018-11-14T06:54:40.501Z,7.05
2018-11-14T06:55:40.723Z,6.99
2018-11-14T06:56:40.957Z,7.05
2018-11-14T06:57:41.170Z,7.02
2018-11-14T06:58:41.421Z,6.95
2018-11-14T06:59:41.651Z,6.81
2018-11-14T07:00:41.846Z,6.72
2018-11-14T07:01:42.070Z,6.78
2018-11-14T07:02:42.295Z,6.75
2018-11-14T07:03:42.518Z,6.75
2018-11-14T07:04:42.748Z,6.78
2018-11-14T07:05:43.059Z,6.78
2018-11-14T07:06:43.196Z,6.78
2018-11-14T07:07:43.434Z,6.89
2018-11-14T07:08:43.640Z,6.88
2018-11-14T07:09:43.867Z,6.97
2018-11-14T07:10:44.091Z,6.85
2018-11-14T07:11:44.316Z,6.96
2018-11-14T07:12:44.545Z,6.93
2018-11-14T07:13:44.771Z,7.03
2018-11-14T07:14:44.995Z,6.99
2018-11-14T07:15:45.217Z,7.02
2018-11-14T07:16:45.443Z,6.96
2018-11-14T07:17:45.700Z,7.18
2018-11-14T07:18:45.890Z,7.20
2018-11-14T07:19:46.124Z,7.20
2018-11-14T07:20:46.342Z,7.25
2018-11-14T07:21:46.567Z,7.06
2018-11-14T07:22:46.798Z,7.13
2018-11-14T07:23:47.028Z,7.07
2018-11-14T07:24:47.275Z,7.14
2018-11-14T07:25:47.465Z,7.24
2018-11-14T07:26:47.687Z,7.18
2018-11-14T07:27:47.912Z,7.25
2018-11-14T07:28:48.136Z,7.47
2018-11-14T07:29:48.362Z,7.45
2018-11-14T07:30:48.591Z,7.63
2018-11-14T07:31:48.815Z,7.58
2018-11-14T07:32:49.031Z,7.61
2018-11-14T07:33:49.253Z,7.66
2018-11-14T07:34:49.478Z,7.79
2018-11-14T07:35:49.706Z,7.47
2018-11-14T07:36:49.932Z,7.33
2018-11-14T07:37:50.181Z,7.21
2018-11-14T07:38:50.375Z,7.18
2018-11-14T07:39:50.598Z,7.31
2018-11-14T07:40:50.817Z,7.42
2018-11-14T07:41:51.042Z,7.57
2018-11-14T07:42:51.265Z,7.70
2018-11-14T07:43:51.496Z,7.45
2018-11-14T07:44:51.717Z,7.35
2018-11-14T07:45:51.941Z,7.50
2018-11-14T07:46:52.166Z,7.56
2018-11-14T07:47:52.394Z,7.75
2018-11-14T07:48:52.650Z,7.60
2018-11-14T07:49:52.900Z,7.54
2018-11-14T07:50:53.072Z,7.69
2018-11-14T07:51:53.292Z,7.51
2018-11-14T07:52:53.522Z,7.57
2018-11-14T07:53:53.742Z,7.50
2018-11-14T07:54:53.968Z,7.42
2018-11-14T07:55:54.193Z,7.36
2018-11-14T07:56:54.417Z,7.39
2018-11-14T07:57:54.649Z,7.43
2018-11-14T07:58:54.870Z,7.42
2018-11-14T07:59:55.094Z,7.47
2018-11-14T08:00:55.328Z,7.42
2018-11-14T08:01:55.552Z,7.50
2018-11-14T08:02:55.772Z,7.58
2018-11-14T08:03:55.999Z,7.60
2018-11-14T08:04:56.218Z,7.69
2018-11-14T08:05:56.441Z,7.88
2018-11-14T08:06:56.666Z,7.93
2018-11-14T08:07:56.971Z,8.09
2018-11-14T08:08:57.112Z,8.20
2018-11-14T08:09:57.340Z,8.30
2018-11-14T08:10:57.563Z,8.41
2018-11-14T08:11:57.791Z,8.42
2018-11-14T08:12:58.010Z,8.48
2018-11-14T08:13:58.237Z,8.60
2018-11-14T08:14:58.464Z,8.53
2018-11-14T08:15:58.684Z,8.58
2018-11-14T08:16:58.911Z,8.67
2018-11-14T08:17:59.137Z,8.66
2018-11-14T08:18:59.421Z,8.61
2018-11-14T08:19:59.585Z,8.78
2018-11-14T08:20:59.815Z,8.79
2018-11-14T08:22:00.041Z,8.81
2018-11-14T08:23:00.263Z,8.87
2018-11-14T08:24:00.487Z,8.89
2018-11-14T08:25:00.764Z,8.91
2018-11-14T08:26:00.939Z,8.88
2018-11-14T08:27:01.156Z,8.99
2018-11-14T08:28:01.384Z,9.00
2018-11-14T08:29:01.612Z,9.00
2018-11-14T08:30:01.834Z,9.18
2018-11-14T08:31:02.057Z,9.04
2018-11-14T08:32:02.284Z,9.16
2018-11-14T08:33:02.508Z,9.11
2018-11-14T08:34:02.730Z,9.16
2018-11-14T08:35:02.959Z,9.23
2018-11-14T08:36:03.180Z,9.18
2018-11-14T08:37:03.406Z,9.19
2018-11-14T08:38:03.631Z,9.19
2018-11-14T08:39:03.920Z,9.22
2018-11-14T08:40:04.075Z,9.25
2018-11-14T08:41:04.304Z,9.25
2018-11-14T08:42:04.526Z,9.25
2018-11-14T08:43:04.761Z,9.34
2018-11-14T08:44:04.979Z,9.19
2018-11-14T08:45:05.196Z,9.22
2018-11-14T08:46:05.429Z,9.37
2018-11-14T08:47:05.645Z,9.43
2018-11-14T08:48:05.870Z,9.28
2018-11-14T08:49:06.095Z,9.48
2018-11-14T08:50:06.324Z,9.34
2018-11-14T08:51:06.541Z,9.34
2018-11-14T08:52:06.766Z,9.43
2018-11-14T08:53:06.995Z,9.44
2018-11-14T08:54:07.214Z,9.37
2018-11-14T08:55:07.439Z,9.34
2018-11-14T08:56:07.668Z,9.44
2018-11-14T08:57:07.891Z,9.40
2018-11-14T08:58:08.196Z,9.46
2018-11-14T08:59:08.336Z,9.48
2018-11-14T09:00:08.561Z,9.51
2018-11-14T09:01:08.782Z,9.50
2018-11-14T09:02:09.006Z,9.62
2018-11-14T09:03:09.232Z,9.58
2018-11-14T09:04:09.528Z,9.65
2018-11-14T09:05:09.679Z,9.62
2018-11-14T09:06:09.910Z,9.65
2018-11-14T09:07:10.127Z,9.73
2018-11-14T09:08:10.362Z,9.73
2018-11-14T09:09:10.577Z,9.69
2018-11-14T09:10:10.797Z,9.77
2018-11-14T09:11:11.126Z,9.83
2018-11-14T09:12:11.255Z,9.77
2018-11-14T09:13:11.578Z,9.74
2018-11-14T09:14:11.709Z,9.82
2018-11-14T09:15:11.982Z,9.82
2018-11-14T09:16:12.155Z,9.77
2018-11-14T09:17:12.380Z,9.82
2018-11-14T09:18:12.637Z,9.91
2018-11-14T09:19:12.831Z,9.87
2018-11-14T09:20:13.054Z,9.84
2018-11-14T09:21:13.284Z,9.82
2018-11-14T09:22:13.505Z,9.79
2018-11-14T09:23:13.737Z,9.94
2018-11-14T09:24:13.984Z,9.94
2018-11-14T09:25:14.200Z,9.92
2018-11-14T09:26:14.423Z,10.02
2018-11-14T09:27:14.654Z,10.01
2018-11-14T09:28:14.872Z,10.09
2018-11-14T09:29:15.103Z,10.10
2018-11-14T09:30:15.326Z,10.12
2018-11-14T09:31:15.550Z,10.13
2018-11-14T09:32:15.779Z,10.22
2018-11-14T09:33:16.081Z,10.16
2018-11-14T09:34:16.228Z,10.22
2018-11-14T09:35:16.455Z,10.15
2018-11-14T09:36:16.676Z,10.10
2018-11-14T09:37:16.900Z,10.09
2018-11-14T09:38:17.126Z,10.09
2018-11-14T09:39:17.350Z,10.07
2018-11-14T09:40:17.576Z,10.10
2018-11-14T09:41:17.845Z,10.07
2018-11-14T09:42:18.034Z,10.16
2018-11-14T09:43:18.261Z,10.15
2018-11-14T09:44:18.485Z,10.17
2018-11-14T09:45:18.714Z,10.12
2018-11-14T09:46:18.937Z,10.09
2018-11-14T09:47:19.164Z,10.09
2018-11-14T09:48:19.392Z,10.09
2018-11-14T09:49:19.722Z,10.10
2018-11-14T09:50:19.846Z,10.04
2018-11-14T09:51:20.072Z,10.09
2018-11-14T09:52:20.292Z,10.04
2018-11-14T09:53:20.521Z,10.07
2018-11-14T09:54:20.744Z,10.07
2018-11-14T09:55:20.973Z,9.99
2018-11-14T09:56:21.212Z,10.10
2018-11-14T09:57:21.426Z,10.16
2018-11-14T09:58:21.649Z,10.16
2018-11-14T09:59:21.876Z,10.17
2018-11-14T10:00:22.103Z,10.16
2018-11-14T10:01:22.332Z,10.22
2018-11-14T10:02:22.559Z,10.28
2018-11-14T10:03:22.799Z,10.26
2018-11-14T10:04:23.008Z,10.26
2018-11-14T10:05:23.241Z,10.33
2018-11-14T10:06:23.502Z,10.34
2018-11-14T10:07:23.685Z,10.33
2018-11-14T10:08:23.905Z,10.35
2018-11-14T10:09:24.129Z,10.40
2018-11-14T10:10:24.357Z,10.28
2018-11-14T10:11:24.590Z,10.48
2018-11-14T10:12:24.890Z,10.49
2018-11-14T10:13:25.037Z,10.46
2018-11-14T10:14:25.261Z,10.48
2018-11-14T10:15:25.498Z,10.40
2018-11-14T10:16:25.712Z,10.42
2018-11-14T10:17:25.941Z,10.42
2018-11-14T10:18:26.191Z,10.48
2018-11-14T10:19:26.391Z,10.48
2018-11-14T10:20:26.622Z,10.51
2018-11-14T10:21:26.999Z,10.44
2018-11-14T10:22:27.073Z,10.46
2018-11-14T10:23:27.295Z,10.44
2018-11-14T10:24:27.521Z,10.56
2018-11-14T10:25:27.744Z,10.68
2018-11-14T10:26:27.980Z,10.69
2018-11-14T10:27:28.197Z,10.74
2018-11-14T10:28:28.421Z,10.68
2018-11-14T10:29:28.646Z,10.76
2018-11-14T10:30:28.945Z,10.57
2018-11-14T10:31:29.130Z,10.71
2018-11-14T10:32:29.329Z,10.68
2018-11-14T10:33:29.550Z,10.74
2018-11-14T10:34:29.782Z,10.74
2018-11-14T10:35:30.002Z,10.71
2018-11-14T10:36:30.226Z,10.64
2018-11-14T10:37:30.454Z,10.75
2018-11-14T10:38:30.680Z,10.72
2018-11-14T10:39:30.908Z,10.74
2018-11-14T10:40:31.135Z,10.72
2018-11-14T10:41:31.360Z,10.84
2018-11-14T10:42:31.582Z,10.87
2018-11-14T10:43:31.809Z,10.89
2018-11-14T10:44:32.038Z,10.99
2018-11-14T10:45:32.264Z,10.84
2018-11-14T10:46:32.492Z,10.92
2018-11-14T10:47:32.718Z,10.92
2018-11-14T10:48:32.943Z,10.82
2018-11-14T10:49:33.169Z,10.82
2018-11-14T10:50:33.395Z,10.92
2018-11-14T10:51:33.622Z,10.96
2018-11-14T10:52:33.852Z,11.05
2018-11-14T10:53:34.078Z,11.02
2018-11-14T10:54:34.308Z,11.02
2018-11-14T10:55:34.536Z,11.10
2018-11-14T10:56:34.757Z,11.05
2018-11-14T10:57:34.985Z,11.04
2018-11-14T10:58:35.262Z,11.12
2018-11-14T10:59:35.437Z,11.05
2018-11-14T11:00:35.667Z,11.18
2018-11-14T11:01:35.895Z,11.22
2018-11-14T11:02:36.118Z,11.15
2018-11-14T11:03:36.354Z,11.22
2018-11-14T11:04:36.574Z,11.29
2018-11-14T11:05:36.795Z,11.27
2018-11-14T11:06:37.024Z,11.25
2018-11-14T11:07:37.250Z,11.25
2018-11-14T11:08:37.533Z,11.26
2018-11-14T11:09:37.703Z,11.33
2018-11-14T11:10:37.926Z,11.36
2018-11-14T11:11:38.149Z,11.44
2018-11-14T11:12:38.375Z,11.44
2018-11-14T11:13:38.656Z,11.33
2018-11-14T11:14:38.830Z,11.47
2018-11-14T11:15:39.059Z,11.44
2018-11-14T11:16:39.284Z,11.36
2018-11-14T11:17:39.504Z,11.44
2018-11-14T11:18:39.733Z,11.33
2018-11-14T11:19:39.960Z,11.33
2018-11-14T11:20:40.185Z,11.41
2018-11-14T11:21:40.412Z,11.44
2018-11-14T11:22:40.640Z,11.45
2018-11-14T11:23:40.958Z,11.40
2018-11-14T11:24:41.090Z,11.44
2018-11-14T11:25:41.314Z,11.47
2018-11-14T11:26:41.543Z,11.57
2018-11-14T11:27:41.769Z,11.54
2018-11-14T11:28:41.993Z,11.62
2018-11-14T11:29:42.220Z,11.57
2018-11-14T11:30:42.495Z,11.59
2018-11-14T11:31:42.686Z,11.62
2018-11-14T11:32:42.899Z,11.63
2018-11-14T11:33:43.131Z,11.63
2018-11-14T11:34:43.354Z,11.66
2018-11-14T11:35:43.580Z,11.66
2018-11-14T11:36:43.805Z,11.68
2018-11-14T11:37:44.033Z,11.70
2018-11-14T11:38:44.259Z,11.81
2018-11-14T11:39:44.486Z,11.48
2018-11-14T11:40:44.710Z,11.32
2018-11-14T11:41:44.940Z,11.36
2018-11-14T11:42:45.168Z,11.47
2018-11-14T11:43:45.395Z,11.33
2018-11-14T11:44:45.622Z,11.54
2018-11-14T11:45:45.847Z,11.62
2018-11-14T11:46:46.067Z,11.55
2018-11-14T11:47:46.302Z,11.66
2018-11-14T11:48:46.527Z,11.77
2018-11-14T11:49:46.752Z,11.80
2018-11-14T11:50:46.988Z,11.83
2018-11-14T11:51:47.208Z,11.88
2018-11-14T11:52:47.434Z,11.88
2018-11-14T11:53:47.657Z,11.84
2018-11-14T11:54:47.885Z,11.94
2018-11-14T11:55:48.112Z,11.99
2018-11-14T11:56:48.340Z,11.90
2018-11-14T11:57:48.569Z,11.90
2018-11-14T11:58:48.796Z,11.94
2018-11-14T11:59:49.101Z,11.86
2018-11-14T12:00:49.291Z,11.95
2018-11-14T12:01:49.469Z,11.94
2018-11-14T12:02:49.696Z,11.95
2018-11-14T12:03:49.922Z,12.00
2018-11-14T12:04:50.155Z,11.94
2018-11-14T12:05:50.437Z,11.95
2018-11-14T12:06:50.604Z,11.99
2018-11-14T12:07:50.831Z,11.94
2018-11-14T12:08:51.059Z,11.90
2018-11-14T12:09:51.284Z,11.99
2018-11-14T12:10:51.549Z,12.02
2018-11-14T12:11:51.740Z,11.94
2018-11-14T12:12:51.975Z,11.95
2018-11-14T12:13:52.260Z,11.95
2018-11-14T12:14:52.424Z,11.99
2018-11-14T12:15:52.633Z,11.97
2018-11-14T12:16:52.891Z,11.97
2018-11-14T12:17:53.225Z,11.95
2018-11-14T12:18:53.341Z,12.10
2018-11-14T12:19:53.599Z,12.13
2018-11-14T12:20:53.837Z,12.13
2018-11-14T12:21:54.104Z,12.07
2018-11-14T12:22:54.277Z,12.12
2018-11-14T12:23:54.502Z,12.18
2018-11-14T12:24:54.724Z,12.00
2018-11-14T12:25:54.952Z,12.07
2018-11-14T12:26:55.191Z,12.04
2018-11-14T12:27:55.404Z,12.09
2018-11-14T12:28:55.625Z,12.07
2018-11-14T12:29:55.882Z,12.15
2018-11-14T12:30:56.205Z,12.09
2018-11-14T12:31:56.366Z,12.15
2018-11-14T12:32:56.600Z,12.09
2018-11-14T12:33:56.821Z,12.20
2018-11-14T12:34:57.073Z,12.17
2018-11-14T12:35:57.278Z,12.21
2018-11-14T12:36:57.502Z,12.28
2018-11-14T12:37:57.728Z,12.27
2018-11-14T12:38:57.955Z,12.20
2018-11-14T12:39:58.181Z,12.28
2018-11-14T12:40:58.410Z,12.35
2018-11-14T12:41:58.638Z,12.29
2018-11-14T12:42:58.859Z,12.29
2018-11-14T12:43:59.079Z,12.25
2018-11-14T12:44:59.329Z,12.21
2018-11-14T12:45:59.532Z,12.27
2018-11-14T12:46:59.758Z,12.32
2018-11-14T12:47:59.995Z,12.25
2018-11-14T12:49:00.210Z,12.10
2018-11-14T12:50:00.435Z,12.03
2018-11-14T12:51:00.661Z,11.95
2018-11-14T12:52:00.891Z,12.03
2018-11-14T12:53:01.138Z,12.03
2018-11-14T12:54:01.350Z,12.15
2018-11-14T12:55:01.577Z,12.18
2018-11-14T12:56:01.801Z,12.25
2018-11-14T12:57:02.030Z,12.35
2018-11-14T12:58:02.255Z,12.35
2018-11-14T12:59:02.483Z,12.37
2018-11-14T13:00:02.778Z,12.29
2018-11-14T13:01:02.932Z,12.45
2018-11-14T13:02:03.154Z,12.39
2018-11-14T13:03:03.372Z,12.28
2018-11-14T13:04:03.604Z,12.35
2018-11-14T13:05:03.833Z,12.40
2018-11-14T13:06:04.059Z,12.39
2018-11-14T13:07:04.290Z,12.45
2018-11-14T13:08:04.517Z,12.35
2018-11-14T13:09:04.745Z,12.43
2018-11-14T13:10:04.965Z,12.36
2018-11-14T13:11:05.192Z,12.27
2018-11-14T13:12:05.420Z,12.25
2018-11-14T13:13:05.647Z,12.04